logo tempoitalia

Diretta Meteo Baia Mare, Romanialunedì 31 agosto ore 08:00

Mappa
Sereno 17 °C Sereno 24 Ore: T.min 14 T.max 31
Ponente Est Km/h 7.4 Punto di rugiada: 12 °C Umidità: 72% Visibilità: 10 Km
Il sole sorge alle: 06:42 Il sole tramonta alle: 20:09
31 Agosto 2026 08:00 tempo osservato: Sereno Sereno 17 72 1018 vento: Nord E 7.4
31 Agosto 2026 07:30 tempo osservato: Sereno Sereno 15 82 1018 vento: Nord E 7.4
31 Agosto 2026 07:00 tempo osservato: Sereno Sereno 14 82 1017 vento: Nord E 7.4
31 Agosto 2026 06:30 tempo osservato: Sereno Sereno 14 82 1017 vento: Nord E/SE 9.3
31 Agosto 2026 06:00 tempo osservato: Sereno Sereno 16 72 1017 vento: Nord E 9.3
31 Agosto 2026 05:30 tempo osservato: Sereno Sereno 16 72 1017 vento: Nord E 7.4
31 Agosto 2026 05:00 tempo osservato: Sereno Sereno 15 76 1017 vento: Nord E 9.3
31 Agosto 2026 04:30 tempo osservato: Sereno Sereno 17 67 1017 vento: Nord E/NE 7.4
31 Agosto 2026 04:00 tempo osservato: Sereno Sereno 17 72 1017 vento: Nord E 11.1
31 Agosto 2026 03:30 tempo osservato: Sereno Sereno 16 72 1017 vento: Nord E 9.3
31 Agosto 2026 03:00 tempo osservato: Sereno Sereno 18 63 1017 vento: Nord E 9.3
31 Agosto 2026 02:30 tempo osservato: Sereno Sereno 17 67 1017 vento: Nord E/SE 9.3
31 Agosto 2026 02:00 tempo osservato: Sereno Sereno 18 67 1017 vento: Nord N 3.7
31 Agosto 2026 01:30 tempo osservato: Sereno Sereno 19 63 1017 vento: Nord NE 7.4
31 Agosto 2026 01:00 tempo osservato: Sereno Sereno 18 67 1017 vento: Nord E/NE 9.3
31 Agosto 2026 00:30 tempo osservato: Sereno Sereno 18 67 1017 vento: Nord N 5.5
31 Agosto 2026 00:00 tempo osservato: Sereno Sereno 20 56 1017 vento: Nord E/NE 9.3
30 Agosto 2026 23:30 tempo osservato: Sereno Sereno 20 56 1017 vento: Nord N 5.5
30 Agosto 2026 23:00 tempo osservato: Sereno Sereno 21 52 1017 vento: Nord N 7.4
30 Agosto 2026 22:30 tempo osservato: Sereno Sereno 21 52 1017 vento: Nord N 5.5
30 Agosto 2026 22:00 tempo osservato: Sereno Sereno 22 49 1016 vento: Nord N 5.5
30 Agosto 2026 21:30 tempo osservato: Sereno Sereno 23 46 1016 vento: Nord N/NE 7.4
30 Agosto 2026 21:00 tempo osservato: Sereno Sereno 24 43 1016 vento: Nord N 5.5
30 Agosto 2026 20:30 tempo osservato: Sereno Sereno 25 41 1015 vento: Nord N 5.5
30 Agosto 2026 20:00 tempo osservato: Sereno Sereno 27 34 1015 vento: Nord N 5.5
30 Agosto 2026 19:30 tempo osservato: Sereno Sereno 30 28 1015 vento: Nord O/NO 7.4
30 Agosto 2026 19:00 tempo osservato: Sereno Sereno 30 27 1015 vento: Nord O/NO 9.3
30 Agosto 2026 18:30 tempo osservato: Sereno Sereno 31 25 1015 vento: Nord O 11.1
30 Agosto 2026 18:00 tempo osservato: Sereno Sereno 31 27 1015 vento: Nord O/NO 9.3
30 Agosto 2026 17:30 tempo osservato: Sereno Sereno 31 27 1015 vento: Nord O/SO 9.3
30 Agosto 2026 17:00 tempo osservato: Sereno Sereno 31 31 1015 vento: Nord O/NO 11.1
30 Agosto 2026 16:30 tempo osservato: Sereno Sereno 31 35 1015 vento: Nord N 5.5
30 Agosto 2026 16:00 tempo osservato: Sereno Sereno 31 37 1016 vento: Nord O 11.1
30 Agosto 2026 15:30 tempo osservato: Sereno Sereno 31 35 1016 vento: Nord N 11.1
30 Agosto 2026 15:00 tempo osservato: Poco Nuvoloso Poco Nuvoloso 31 35 1016 vento: Nord O/SO 14.8
30 Agosto 2026 14:30 tempo osservato: Poco Nuvoloso Poco Nuvoloso 30 37 1016 vento: Nord N 7.4
30 Agosto 2026 14:00 tempo osservato: Poco Nuvoloso Poco Nuvoloso 30 37 1016 vento: Nord S/SE 9.3
30 Agosto 2026 13:30 tempo osservato: Poco Nuvoloso Poco Nuvoloso 29 39 1017 vento: Nord N 7.4
30 Agosto 2026 13:00 tempo osservato: Poco Nuvoloso Poco Nuvoloso 28 45 1017 vento: Nord N 7.4
30 Agosto 2026 12:30 tempo osservato: Poco Nuvoloso Poco Nuvoloso 28 45 1017 vento: Nord S/SO 11.1
30 Agosto 2026 12:00 tempo osservato: Poco Nuvoloso Poco Nuvoloso 27 47 1017 vento: Nord N 7.4
30 Agosto 2026 11:30 tempo osservato: Sereno Sereno 26 50 1017 vento: Nord E 7.4
30 Agosto 2026 11:00 tempo osservato: Sereno Sereno 24 53 1017 vento: Nord SE 9.3
30 Agosto 2026 10:30 tempo osservato: Sereno Sereno 25 53 1017 vento: Nord E 9.3
30 Agosto 2026 10:00 tempo osservato: Sereno Sereno 23 60 1017 vento: Nord N 5.5
30 Agosto 2026 09:30 tempo osservato: Sereno Sereno 22 64 1017 vento: Nord N 5.5
30 Agosto 2026 09:00 tempo osservato: Sereno Sereno 21 68 1017 vento: Nord E 11.1